Timeline UpdatesTrip UpdatesNews PostsPvt PostsTravel TipsAdmin PostsConv PostsFollowed PostsChat RequestsBlog PostsPNR Posts

Disclaimer
Search
 
 
Tue Sep 2, 2014 17:07:46 ISTHomeTrainsΣChainsAtlasPNRForumGalleryNewsFAQTripsMembersLoginFeedback
No Recent News for this Train
Other Trains in the News **new
Latest...
due to the yard remodeling Phase-II and Final at Arsikere Junction in connection with doubling of track, Train No. 56516 UBL-UBL passenger is cancelled on May 14, 15 and 22.
Sun May 12, 2013 (05:17PM)
⇐ Return Journey: Train# 56515

56516/Hubli - Bangalore City Passenger (UnReserved)

OLD Time-Table. Click here to UPDATE TT
Sep 11 2013 (10:56PM)
Change Departure Station:
Change Arrival Station:
Post a Train Travel TipPost a Train Travel Tip **new
Post a Comment/Question/Picture/VideoPost a Comment/Question/Picture/Video
Pantry/Catering
✕ NO Pantry Car
✓ Catering Avbl
By enroute vendors
RSA - Rake Sharing
56501/02 Vijayawada Hubli Pass 56503/04 Vijayawada YPR Pass
Rake/Coach Composition
Loco
KJM WDM/G 3A
News    PNR    Forum    Time-Table    Availability    Fare Chart    Map    Arr/Dep History    Trips    Gallery    ΣChains    X/O    Timeline    
Travel Time: 7h 45m    40 halts    Distance: 280 km    Avg Speed: 36 km/hr
Type: Passenger
Zone: SWR/South Western
Departs @ 12:15
Platform# ???
SMTWTFS
Chikjajur Junction/JRU 
Arrives @ 20:00
Platform# 9
SMTWTFS
Bangalore City Junction/SBC 

40 halts. 41 intermediate Stations between Chikjajur Junction and Bangalore City Junction

Show ALL intermediate Stations  

#CodeStation NameX/OArrivesAvgDepartsAvgHaltPFDay#KmSpeedElevZoneAddress
1UBLHubli Junction (5)  -07:15---1-190.039640mSWRHubli - 580020, Karnataka
2KNOKundgol (2)  07:39-07:40-1m--1-174.345636mSWRKundgol, Karnataka
3SNHSaunshi (2)X  07:51-07:52-1m--1-166.056634mSWRSaunshi, Karnataka
4GDIGudgeri (2)  08:04-08:05-1m--1-154.882689mSWRGudgeri, Karnataka
5KALSKalas Halt  08:09-08:10-1m--1-149.440663mSWRState Highway 6, Karnataka
6YLGYalvigi (2)X  08:19-08:20-1m--1-143.347621mSWRYalvigi, Karnataka
7SVNRSavanur (2)  08:31-08:32-1m--1-134.871584mSWRState Highway 6, Karnataka
8KVSKalsur  08:39-08:40-1m--1-126.519541mSWRNH 48, Karnataka
9KJGKarajgi (2)  08:54-08:55-1m--1-122.148550mSWRhaveri, Karnataka
10HVRHaveri (3)  09:04-09:05-1m--1-114.960558mSWRHaveri, Karnataka
11BYDByadgi (2)X  09:19-09:20-1m--1-100.868632mSWRNational Highway 4, Karnataka
12DADDevargudda (2)  09:29-09:30-1m--1-90.555589mSWRDevaragudda, Karnataka
13RNRRanibennur (3)  09:39-09:40-1m--1-82.473583mSWRRanebennur, Karnataka
14CLIChalgeri (2)X  09:51-09:52-1m--1-68.922574mSWRChalageri, Karnataka
15HRRHarihar (3)  10:19-10:20-1m--1-59.027553mSWRHarihar, Karnataka
16DVGDavangere (2)X  10:49-10:50-1m--1-46.263598mSWRDavanagere, Karnataka
17THNTolahunse (2)  10:59-11:00-1m--1-36.872614mSWRTholahunase, Karnataka
18HNHHanumanahalli  11:05-11:06-1m--1-30.736621mSWRHiretogaleri, Karnataka
19KAGKodaganur  11:14-11:15-1m--1-26.055633mSWRState Highway 47, Karnataka
20MYKMayakonda (2)  11:24-11:25-1m--1-17.853646mSWRState Highway 47, Karnataka
21SLUSasaluX  11:34-11:35-1m--1-9.815660mSWRState Highway 47, Karnataka
22JRU»Chikjajur Junction (3)»  12:14-12:15-1m--10.054677mSWRChikkajajur, Karnataka
23HLKHolalkere  12:26-12:27-1m--19.945661mSWRNational Highway 13, Karnataka
24RGIRamgiriX  12:39-12:40-1m--118.972705mSWRShivani Rd, Karnataka
25ABGTArbagatta Halt  12:46-12:47-1m--126.146735mSWRState Highway 47, Karnataka
26HSDHosdurga Road (1)  12:52-12:53-1m1130.054765mSWRChitradurga Dist., Karnataka
27SHVShivani  13:04-13:05-1m--139.964779mSWRShivani Rd, Karnataka
28AJPAjjampur (2)X  13:15-13:16-1m--150.752752mSWRAjjampur, Karnataka
29NVFNagavangala  13:25-13:26-1m--158.434809mSWRMelanahalli Rd, Karnataka
30RRBBirur Junction (3)  13:44-13:45-1m--168.839802mSWRBirur, Karnataka
31DRUKadur Junction (3)  13:54-13:55-1m--174.755774mSWRKadur, Karnataka
32BLKRBallekere Halt  14:02-14:03-1m--181.155780mSWRNational Highway 206, Karnataka
33VNRDevanur (2)X  14:14-14:15-1m--191.153757mSWRDevanur Railway Station, Karnataka
34BVRBanavar (2)  14:23-14:24-1m--198.227790mSWRNH 73, Karnataka
35ASKArsikere Junction (3)  14:59-15:00-1m--1113.867816mSWRArsikere, Karnataka
36ADHLAdihalli (1)  15:10-15:11-1m11124.936870mSWRNational Highway 206, Karnataka
37HVLHonnavalli Road (3)X  15:19-15:20-1m--1129.649888mSWRNational Highway 206, Karnataka
38SSNHSree Saradanagar Hal (1)  15:29-15:30-1m11137.010876mSWRTiptur, Karnataka
39TTRTiptur (4)X  15:44-15:45-1m--1139.381860mSWRTiptur, Karnataka
40BNKBanashankari Halt  15:49-15:50-1m--1144.736849mSWRNational Highway 206, Karnataka
41RDIKardi  15:59-16:00-1m--1150.180843mSWRKaradi Cross, Karnataka
42ARGPAralaguppeX  16:04-16:05-1m--1155.433843mSWRState Highway 74, Karnataka
43BSNBanasandra (1)X  16:14-16:15-1m11160.338851mSWRTumkur Dist., Karnataka
44AMSAAmmasandra (1)  16:24-16:25-1m11166.050858mSWRTumkur Dist., Karnataka
45SPGRSampige Road (2)  16:32-16:33-1m--1171.961831mSWRTumkur, Karnataka
46NTRNittur (1)X  16:44-16:45-1m11183.040789mSWRNH 206, Karnataka
47GBBGubbi (1)X  16:59-17:00-1m11192.255780mSWRGubbi, Karnataka
48MLSAMallasandra (2)  17:09-17:10-1m--1200.554802mSWRTumkur., Karnataka
49HEIHeggere Halt (1)  17:14-17:15-1m11204.274804mSWRHeggere, Karnataka
50TKTumkur (3)  17:20-17:22-2m11210.335823mSWRTumkur, Karnataka
51KIATKyatsandra (4)  17:31-17:32-1m--1215.545841mSWRTumkur, Karnataka
52HHLHirehaliX  17:40-17:41-1m31221.655848mSWRNH 4, Karnataka
53DBSDobbspet (2)  17:50-17:51-1m21229.946917mSWRTumkur Dist., Karnataka
54NDVNidvanda (3)  17:55-17:56-1m31233.057912mSWRNH 207, Karnataka
55MDLLMuddalingana Halli (2)  18:00-18:01-1m--1236.749891mSWRNH 207, Karnataka
56DBLDodbele  18:08-18:09-1m21242.554907mSWRNational Highway 4, Karnataka
57BNKHBhairanayakanahalli (2)  18:14-18:15-1m11246.944903mSWRState Highway 74, Karnataka
58GHLGolhalli (3)  18:24-18:25-1m--1253.567899mSWRState Highway 74, Karnataka
59SDVLSoldevanahalli (2)X  18:34-18:35-1m--1263.617865mSWRBengaluru, Karnataka
60BAWChik Banavar (3)  18:44-18:45-1m--1266.234881mSWRBengaluru, Karnataka
61YPRYesvantpur Junction (6)X  18:59-19:00-1m--1274.319919mSWRBengaluru 560022, Karnataka
62MWMMalleswaram (2)  19:09-19:10-1m--1277.13916mSWRBengaluru, Karnataka
63SBC•Bangalore City Junction (10)•  20:00--91279.9-903mSWRBengaluru-560023, Karnataka
Scroll to Top
Scroll to Bottom